Wood Springs, Texas
Current Conditions -  °F | °C
As of 5:53 PM on Saturday 22 Nov 2014 (Local Time) from KTYR Reporting Station
Light Rain Light Rain  
Wind Chill: 64°   Ceiling: 1700
Heat Index: 64°   Visibility: 10mi
Dew Point: 60°   Wind: 6mph
Humidity: 87%   Direction: 130°SE
Pressure: 29.87"   Gusts: NA
Location:  32.5326°N, 95.4249°W
Report Text: KTYR 222353Z 13005KT 10SM -RA BKN017 OVC024 18/16 A2987 RMK AO2 RAB33 SLP110 P0001 60003 T01780156 10200 20178 58001
Loading
Personal Weather Stations






























Interactive Weather Map New forecast layout! Learn more

10-Day Weather Forecast

Advertisements
Track Severe Weather on mobile